Livermore, Maine
Current Conditions -  °F | °C
As of 1:53 AM on Monday 22 Dec 2014 (Local Time) from KAUG Reporting Station
Overcast Overcast  
Wind Chill: 19°   Ceiling: 400
Heat Index: 25°   Visibility: 10mi
Dew Point: 24°   Wind: 5mph
Humidity: 96%   Direction: 360°N
Pressure: 30.39"   Gusts: NA
Location:  44.38°N, 70.25°W
Report Text: KAUG 220653Z AUTO 36004KT 10SM BKN004 OVC050 M04/M04 A3039 RMK AO2 SLP297 T10391044
Loading
Personal Weather Stations






























Interactive Weather Map New forecast layout! Learn more

10-Day Weather Forecast

Advertisements
Track Severe Weather on mobile